Time;durP1;ratioP1;P1;durP2;ratioP2;P2;SDS_P1;SDS_P2;PMS_P1;PMS_P2;Temp;Humidity;BMP_temperature;BMP_pressure;BME280_temperature;BME280_humidity;BME280_pressure;Samples;Min_cycle;Max_cycle;Signal;HPM_P1;HPM_P2
2021/05/03 00:01:51;;;;;;;11.73;10.60;;;9.60;99.90;;;;;;5032892;28;20565;-72
2021/05/03 00:04:16;;;;;;;11.20;10.07;;;9.60;99.90;;;;;;5032205;28;20552;-69
2021/05/03 00:06:42;;;;;;;12.03;10.83;;;9.60;99.90;;;;;;5027071;28;20188;-68
2021/05/03 00:09:11;;;;;;;12.50;11.30;;;9.50;99.90;;;;;;5021904;28;20702;-67
2021/05/03 00:11:36;;;;;;;12.37;10.43;;;9.60;99.90;;;;;;5021480;28;20220;-67
2021/05/03 00:14:03;;;;;;;12.30;11.00;;;9.60;99.90;;;;;;5021386;28;20439;-69
2021/05/03 00:16:31;;;;;;;12.30;11.10;;;9.60;99.90;;;;;;5003129;28;20213;-70
2021/05/03 00:18:57;;;;;;;12.23;10.93;;;9.60;99.90;;;;;;5001906;28;20439;-69
2021/05/03 00:21:22;;;;;;;13.70;12.20;;;9.70;99.90;;;;;;5021103;28;20463;-67
2021/05/03 00:23:48;;;;;;;14.60;13.03;;;9.70;99.90;;;;;;5019404;28;20662;-67
2021/05/03 00:26:15;;;;;;;11.60;10.47;;;9.60;99.90;;;;;;5018685;28;20200;-68
2021/05/03 00:28:41;;;;;;;18.23;11.20;;;9.60;99.90;;;;;;5015908;28;20462;-70
2021/05/03 00:31:07;;;;;;;13.70;10.90;;;9.50;99.90;;;;;;5021442;28;20462;-72
2021/05/03 00:33:32;;;;;;;12.60;10.77;;;9.50;99.90;;;;;;5018913;28;20840;-69
2021/05/03 00:35:58;;;;;;;13.70;11.90;;;9.60;99.90;;;;;;5018985;28;20200;-68
2021/05/03 00:38:24;;;;;;;12.57;11.27;;;9.60;99.90;;;;;;5019840;28;20311;-70
2021/05/03 00:40:50;;;;;;;13.07;10.53;;;9.60;99.90;;;;;;5021714;28;20216;-69
2021/05/03 00:43:20;;;;;;;12.37;11.13;;;9.60;99.90;;;;;;5021567;28;20857;-68
2021/05/03 00:45:47;;;;;;;13.87;11.40;;;9.50;99.90;;;;;;5021843;28;20518;-67
2021/05/03 00:48:14;;;;;;;13.93;11.80;;;9.50;99.90;;;;;;5022271;28;20446;-69
2021/05/03 00:50:41;;;;;;;12.70;11.40;;;9.50;99.90;;;;;;5020604;28;20470;-71
2021/05/03 00:53:07;;;;;;;13.50;12.10;;;9.40;99.90;;;;;;5020742;28;20435;-67
2021/05/03 00:55:33;;;;;;;13.43;11.40;;;9.40;99.90;;;;;;5020521;28;20508;-68
2021/05/03 00:58:00;;;;;;;13.77;10.70;;;9.40;99.90;;;;;;5021768;28;20489;-68
2021/05/03 01:00:27;;;;;;;12.60;11.00;;;9.30;99.90;;;;;;5020630;28;20435;-69
2021/05/03 01:02:54;;;;;;;12.37;10.70;;;9.40;99.90;;;;;;5019780;28;20962;-72
2021/05/03 01:05:20;;;;;;;14.33;12.20;;;9.30;99.90;;;;;;5001840;28;20987;-70
2021/05/03 01:07:46;;;;;;;13.00;11.67;;;9.20;99.90;;;;;;5019873;28;20603;-71
2021/05/03 01:10:12;;;;;;;14.90;11.40;;;9.20;99.90;;;;;;5021323;28;20443;-70
2021/05/03 01:12:38;;;;;;;13.57;11.47;;;9.20;99.90;;;;;;5019642;28;20524;-68
2021/05/03 01:15:06;;;;;;;11.53;10.33;;;9.10;99.90;;;;;;5021462;28;20439;-69
2021/05/03 01:17:34;;;;;;;10.60;9.50;;;9.00;99.90;;;;;;5002076;28;20467;-69
2021/05/03 01:20:14;;;;;;;13.00;10.57;;;9.00;99.90;;;;;;5020428;28;21895;-68
2021/05/03 01:22:40;;;;;;;13.23;11.83;;;9.00;99.90;;;;;;5001561;28;20494;-68
2021/05/03 01:25:08;;;;;;;10.70;9.60;;;9.00;99.90;;;;;;5016193;28;20495;-69
2021/05/03 01:27:34;;;;;;;11.00;9.47;;;9.00;99.90;;;;;;5001502;28;20489;-68
2021/05/03 01:30:05;;;;;;;12.23;10.17;;;9.00;99.90;;;;;;5017273;28;20456;-69
2021/05/03 01:32:31;;;;;;;10.80;9.70;;;9.00;99.90;;;;;;5021071;28;20474;-73
2021/05/03 01:34:57;;;;;;;12.87;9.90;;;9.00;99.90;;;;;;5021955;28;20439;-66
2021/05/03 01:37:23;;;;;;;10.30;9.30;;;9.00;99.90;;;;;;5018640;28;20215;-72
2021/05/03 01:39:49;;;;;;;10.40;9.33;;;9.00;99.90;;;;;;5019333;28;20435;-66
2021/05/03 01:42:15;;;;;;;10.60;9.43;;;9.00;99.90;;;;;;5015786;28;20470;-72
2021/05/03 01:44:41;;;;;;;11.03;9.83;;;9.00;99.90;;;;;;5019727;28;20214;-69
2021/05/03 01:47:07;;;;;;;9.40;8.40;;;9.00;99.90;;;;;;5019440;28;20183;-69
2021/05/03 01:49:33;;;;;;;10.90;9.70;;;9.00;99.90;;;;;;5020235;28;20443;-69
2021/05/03 01:52:00;;;;;;;10.53;9.53;;;9.10;99.90;;;;;;5007431;28;20216;-72
2021/05/03 01:54:26;;;;;;;11.27;10.17;;;9.10;99.90;;;;;;5019781;28;20227;-67
2021/05/03 01:56:51;;;;;;;10.77;9.67;;;9.00;99.90;;;;;;5018234;28;20557;-68
2021/05/03 01:59:17;;;;;;;11.30;10.10;;;9.00;99.90;;;;;;5007914;28;20907;-72
2021/05/03 02:01:43;;;;;;;11.53;10.20;;;9.00;99.90;;;;;;5022786;28;20211;-68
2021/05/03 02:04:09;;;;;;;11.33;9.50;;;8.90;99.90;;;;;;5018760;28;20448;-68
2021/05/03 02:06:36;;;;;;;11.23;10.03;;;8.90;99.90;;;;;;5020961;28;20186;-68
2021/05/03 02:09:08;;;;;;;12.30;10.33;;;8.90;99.90;;;;;;5020329;28;20988;-68
2021/05/03 02:11:34;;;;;;;9.70;8.70;;;8.90;99.90;;;;;;5020793;28;20470;-71
2021/05/03 02:13:59;;;;;;;13.83;9.70;;;8.90;99.90;;;;;;5022225;28;20525;-68
2021/05/03 02:16:25;;;;;;;10.80;9.70;;;8.90;99.90;;;;;;5022751;28;20857;-69
2021/05/03 02:18:51;;;;;;;10.60;9.37;;;8.90;99.90;;;;;;5027087;28;20227;-68
2021/05/03 02:21:17;;;;;;;11.20;9.43;;;8.90;99.90;;;;;;5025972;28;20212;-71
2021/05/03 02:23:42;;;;;;;11.93;10.20;;;8.90;99.90;;;;;;5026190;28;20717;-67
2021/05/03 02:26:08;;;;;;;10.77;9.60;;;8.80;99.90;;;;;;5023501;28;20184;-69
2021/05/03 02:28:33;;;;;;;12.67;9.33;;;8.80;99.90;;;;;;5007164;28;20198;-69
2021/05/03 02:30:59;;;;;;;10.53;9.43;;;8.80;99.90;;;;;;5009296;28;20220;-69
2021/05/03 02:33:25;;;;;;;10.47;9.27;;;8.80;99.90;;;;;;5024930;28;20196;-68
2021/05/03 02:35:51;;;;;;;13.37;9.57;;;8.70;99.90;;;;;;5023602;28;20232;-70
2021/05/03 02:38:17;;;;;;;10.67;9.03;;;8.70;99.90;;;;;;5024844;28;20295;-67
2021/05/03 02:40:42;;;;;;;10.17;8.90;;;8.70;99.90;;;;;;5022570;28;20538;-69
2021/05/03 02:43:08;;;;;;;10.37;8.57;;;8.70;99.90;;;;;;5024579;28;20673;-70
2021/05/03 02:45:34;;;;;;;15.70;10.47;;;8.70;99.90;;;;;;5024626;28;20211;-68
2021/05/03 02:48:00;;;;;;;10.80;9.30;;;8.70;99.90;;;;;;5027301;28;20253;-68
2021/05/03 02:50:27;;;;;;;12.70;8.90;;;8.60;99.90;;;;;;5024133;28;20271;-69
2021/05/03 02:52:53;;;;;;;11.00;9.80;;;8.60;99.90;;;;;;5026117;28;20525;-72
2021/05/03 02:55:20;;;;;;;12.17;10.70;;;8.50;99.90;;;;;;5025065;28;20438;-69
2021/05/03 02:57:47;;;;;;;10.37;8.87;;;8.50;99.90;;;;;;5008394;28;20567;-68
2021/05/03 03:00:19;;;;;;;10.67;9.57;;;8.40;99.90;;;;;;5021076;28;21000;-69
2021/05/03 03:02:45;;;;;;;10.80;9.20;;;8.40;99.90;;;;;;5023589;28;20441;-70
2021/05/03 03:05:11;;;;;;;10.50;9.10;;;8.30;99.90;;;;;;5026553;28;20460;-68
2021/05/03 03:07:36;;;;;;;11.10;9.30;;;8.30;99.90;;;;;;5006360;28;20197;-70
2021/05/03 03:10:03;;;;;;;12.60;9.70;;;8.40;99.90;;;;;;5023082;28;20183;-72
2021/05/03 03:12:28;;;;;;;10.20;9.10;;;8.40;99.90;;;;;;5026567;28;20234;-68
2021/05/03 03:14:54;;;;;;;9.90;8.60;;;8.40;99.90;;;;;;5025059;28;21693;-70
2021/05/03 03:17:20;;;;;;;11.53;9.83;;;8.30;99.90;;;;;;5022740;28;20227;-69
2021/05/03 03:19:46;;;;;;;14.60;10.33;;;8.30;99.90;;;;;;5026626;28;20263;-71
2021/05/03 03:22:12;;;;;;;14.00;9.13;;;8.20;99.90;;;;;;5023259;28;20627;-67
2021/05/03 03:24:38;;;;;;;11.27;9.83;;;8.20;99.90;;;;;;5026585;28;20431;-68
2021/05/03 03:27:04;;;;;;;10.80;8.17;;;8.30;99.90;;;;;;5024535;28;20195;-69
2021/05/03 03:29:30;;;;;;;11.50;9.30;;;8.30;99.90;;;;;;5006132;28;20196;-70
2021/05/03 03:31:55;;;;;;;10.60;8.87;;;8.30;99.90;;;;;;5007045;28;20550;-70
2021/05/03 03:34:21;;;;;;;9.70;7.90;;;8.30;99.90;;;;;;5024491;28;20223;-68
2021/05/03 03:36:47;;;;;;;9.97;8.77;;;8.20;99.90;;;;;;5029087;28;20223;-68
2021/05/03 03:39:13;;;;;;;14.33;9.17;;;8.20;99.90;;;;;;5034409;28;20197;-67
2021/05/03 03:41:39;;;;;;;11.47;10.10;;;8.30;99.90;;;;;;5033706;28;20470;-68
2021/05/03 03:44:05;;;;;;;10.30;9.20;;;8.30;99.90;;;;;;5026719;28;20430;-70
2021/05/03 03:46:31;;;;;;;11.50;9.03;;;8.30;99.90;;;;;;5023709;28;20213;-72
2021/05/03 03:48:56;;;;;;;12.70;9.60;;;8.30;99.90;;;;;;5028548;28;20439;-69
2021/05/03 03:51:22;;;;;;;10.97;8.47;;;8.30;99.90;;;;;;5025746;28;20454;-68
2021/05/03 03:53:48;;;;;;;13.20;10.20;;;8.20;99.90;;;;;;5004077;28;20180;-67
2021/05/03 03:56:16;;;;;;;10.50;8.80;;;8.20;99.90;;;;;;5024269;28;20441;-71
2021/05/03 03:58:42;;;;;;;11.60;9.90;;;8.20;99.90;;;;;;5022439;28;20493;-69
2021/05/03 04:01:11;;;;;;;15.50;10.33;;;8.20;99.90;;;;;;5021784;28;20976;-70
2021/05/03 04:03:49;;;;;;;14.20;10.93;;;8.20;99.90;;;;;;5021831;28;20197;-68
2021/05/03 04:27:18;;;;;;;12.63;9.10;;;7.90;99.90;;;;;;5023900;28;20446;-69
2021/05/03 04:29:44;;;;;;;10.77;9.70;;;7.90;99.90;;;;;;5022795;28;20263;-68
2021/05/03 04:32:09;;;;;;;10.47;9.10;;;7.90;99.90;;;;;;5021388;28;20320;-68
2021/05/03 04:34:35;;;;;;;11.10;9.53;;;7.80;99.90;;;;;;5022283;28;20716;-69
2021/05/03 04:37:01;;;;;;;13.43;10.53;;;7.80;99.90;;;;;;5023555;28;20203;-70
2021/05/03 04:39:26;;;;;;;10.43;9.33;;;7.90;99.90;;;;;;5021717;28;20183;-69
2021/05/03 04:41:52;;;;;;;11.03;9.83;;;7.90;99.90;;;;;;5023353;28;20200;-70
2021/05/03 04:44:17;;;;;;;14.70;10.40;;;7.90;99.90;;;;;;5004396;28;20208;-70
2021/05/03 04:46:43;;;;;;;10.83;9.73;;;7.90;99.90;;;;;;5022443;28;20187;-69
2021/05/03 04:49:09;;;;;;;11.63;9.70;;;7.90;99.90;;;;;;5006795;28;20191;-68
2021/05/03 04:51:34;;;;;;;11.77;10.37;;;7.80;99.90;;;;;;5022398;28;20239;-71
2021/05/03 04:54:00;;;;;;;14.83;10.80;;;7.90;99.90;;;;;;5022414;28;20780;-70
2021/05/03 04:56:25;;;;;;;11.87;9.60;;;7.90;99.90;;;;;;5023577;28;20533;-71
2021/05/03 04:58:51;;;;;;;10.50;8.90;;;7.90;99.90;;;;;;5020539;28;20211;-69
2021/05/03 05:01:17;;;;;;;13.47;9.57;;;8.00;99.90;;;;;;5020395;28;20224;-69
2021/05/03 05:03:42;;;;;;;12.37;10.57;;;8.00;99.90;;;;;;5023223;28;20187;-69
2021/05/03 05:06:09;;;;;;;13.03;10.23;;;8.00;99.90;;;;;;5021549;28;20842;-69
2021/05/03 05:08:34;;;;;;;16.60;9.57;;;8.00;99.90;;;;;;5023036;28;20180;-70
2021/05/03 05:11:00;;;;;;;12.53;10.20;;;8.10;99.90;;;;;;5022533;28;20446;-69
2021/05/03 05:13:26;;;;;;;11.73;9.30;;;8.10;99.90;;;;;;5020964;28;20196;-70
2021/05/03 05:15:51;;;;;;;10.87;9.77;;;8.00;99.90;;;;;;5021224;28;20212;-70
2021/05/03 05:18:17;;;;;;;12.13;9.87;;;8.10;99.90;;;;;;5019101;28;20219;-70
2021/05/03 05:20:42;;;;;;;12.93;10.30;;;8.10;99.90;;;;;;5023854;28;20214;-69
2021/05/03 05:23:09;;;;;;;13.37;10.63;;;8.20;99.90;;;;;;5022091;28;20183;-70
2021/05/03 05:25:35;;;;;;;11.30;10.10;;;8.20;99.90;;;;;;5023697;28;20183;-69
2021/05/03 05:28:01;;;;;;;13.20;11.20;;;8.20;99.90;;;;;;5024678;28;20894;-70
2021/05/03 05:30:27;;;;;;;11.47;9.80;;;8.00;99.90;;;;;;5015686;28;20438;-69
2021/05/03 05:32:52;;;;;;;12.43;11.13;;;7.90;99.90;;;;;;5021296;28;20440;-70
2021/05/03 05:35:18;;;;;;;18.33;10.47;;;7.90;99.90;;;;;;5019149;28;20199;-68
2021/05/03 05:37:44;;;;;;;11.97;10.60;;;7.80;99.90;;;;;;5019846;28;20299;-69
2021/05/03 05:40:10;;;;;;;15.67;9.93;;;7.90;99.90;;;;;;5021723;28;20202;-69
2021/05/03 05:42:35;;;;;;;12.03;9.90;;;7.90;99.90;;;;;;5022785;28;20203;-71
2021/05/03 05:45:02;;;;;;;12.87;10.17;;;8.00;99.90;;;;;;5019303;28;20913;-69
2021/05/03 05:47:28;;;;;;;11.60;10.40;;;8.00;99.90;;;;;;5022427;28;20236;-69
2021/05/03 05:49:53;;;;;;;11.53;10.33;;;8.10;99.90;;;;;;5018691;28;20889;-71
2021/05/03 05:52:19;;;;;;;12.93;10.93;;;8.00;99.90;;;;;;5003575;28;20299;-69
2021/05/03 05:54:45;;;;;;;11.90;10.60;;;8.10;99.90;;;;;;5020409;28;20180;-69
2021/05/03 05:57:11;;;;;;;11.83;10.63;;;8.10;99.90;;;;;;5022567;28;20856;-70
2021/05/03 05:59:37;;;;;;;12.47;10.40;;;8.20;99.90;;;;;;5021737;28;20496;-70
2021/05/03 06:02:02;;;;;;;11.27;9.90;;;8.20;99.90;;;;;;5019660;28;20231;-70
2021/05/03 06:04:28;;;;;;;13.00;10.93;;;8.20;99.90;;;;;;5023055;28;20545;-70
2021/05/03 06:06:54;;;;;;;12.80;11.17;;;8.20;99.90;;;;;;5005452;28;20867;-69
2021/05/03 06:09:19;;;;;;;12.50;10.40;;;8.20;99.90;;;;;;5023107;28;20710;-70
2021/05/03 06:11:45;;;;;;;13.70;11.07;;;8.20;99.90;;;;;;5002694;28;20212;-69
2021/05/03 06:14:11;;;;;;;11.70;10.50;;;8.30;99.90;;;;;;5021209;28;20570;-68
2021/05/03 06:16:36;;;;;;;13.97;11.00;;;8.30;99.90;;;;;;5020645;28;21121;-70
2021/05/03 06:19:02;;;;;;;12.87;10.27;;;8.40;99.90;;;;;;5023830;28;20181;-69
2021/05/03 06:21:28;;;;;;;16.83;11.03;;;8.50;99.90;;;;;;5021204;28;20774;-70
2021/05/03 06:23:53;;;;;;;12.30;9.80;;;8.50;99.90;;;;;;5023415;28;20224;-70
2021/05/03 06:26:19;;;;;;;17.43;11.17;;;8.60;99.90;;;;;;5016097;28;20244;-69
2021/05/03 06:28:45;;;;;;;10.83;9.73;;;8.70;99.90;;;;;;5017889;28;20204;-68
2021/05/03 06:31:10;;;;;;;12.47;11.13;;;8.70;99.90;;;;;;5021243;28;20666;-69
2021/05/03 06:33:36;;;;;;;14.50;12.70;;;8.70;99.90;;;;;;5019987;28;21434;-69
2021/05/03 06:36:03;;;;;;;11.90;10.60;;;8.70;99.90;;;;;;5016832;28;20187;-70
2021/05/03 06:38:29;;;;;;;13.77;11.10;;;8.70;99.90;;;;;;5019286;28;20714;-70
2021/05/03 06:40:54;;;;;;;11.97;10.73;;;8.80;99.90;;;;;;5020260;28;20464;-69
2021/05/03 06:43:20;;;;;;;14.00;10.73;;;8.90;99.90;;;;;;5022590;28;20850;-69
2021/05/03 06:45:46;;;;;;;11.20;10.10;;;9.00;99.90;;;;;;5002694;28;20564;-68
2021/05/03 06:48:12;;;;;;;16.63;10.23;;;8.90;99.90;;;;;;5020583;28;20210;-69
2021/05/03 06:50:42;;;;;;;12.10;10.23;;;9.00;99.90;;;;;;5024221;28;20187;-69
2021/05/03 06:53:07;;;;;;;12.17;10.93;;;9.10;99.90;;;;;;5021264;28;20908;-69
2021/05/03 06:55:33;;;;;;;13.40;11.00;;;9.10;99.90;;;;;;5021910;28;20463;-70
2021/05/03 06:57:59;;;;;;;11.90;10.53;;;9.30;99.90;;;;;;5022947;28;20224;-69
2021/05/03 07:00:25;;;;;;;13.77;10.43;;;9.30;99.90;;;;;;5002340;28;20447;-69
2021/05/03 07:02:51;;;;;;;13.40;10.30;;;9.30;99.90;;;;;;5026072;28;20720;-69
2021/05/03 07:05:17;;;;;;;12.43;10.10;;;9.40;99.90;;;;;;5026268;28;20944;-69
2021/05/03 07:07:42;;;;;;;13.57;10.03;;;9.50;99.90;;;;;;5006726;28;20458;-70
2021/05/03 07:10:09;;;;;;;12.40;9.77;;;9.60;99.90;;;;;;5026304;28;20184;-69
2021/05/03 07:12:40;;;;;;;19.23;9.60;;;9.70;99.90;;;;;;5029989;28;20702;-68
2021/05/03 07:15:07;;;;;;;13.60;10.70;;;9.90;99.90;;;;;;5031825;28;21476;-69
2021/05/03 07:17:33;;;;;;;11.60;10.37;;;10.00;99.90;;;;;;5029281;28;20484;-67
2021/05/03 07:20:00;;;;;;;13.87;10.00;;;10.10;99.90;;;;;;5025017;28;20443;-70
2021/05/03 07:22:26;;;;;;;10.77;9.23;;;10.20;99.90;;;;;;5025965;28;20197;-68
2021/05/03 07:24:51;;;;;;;14.00;9.90;;;10.40;99.90;;;;;;5008355;28;20484;-69
2021/05/03 07:27:17;;;;;;;12.87;10.30;;;10.60;99.90;;;;;;5022008;28;20624;-69
2021/05/03 07:29:43;;;;;;;12.53;9.53;;;10.70;99.90;;;;;;5026081;28;20197;-69
2021/05/03 07:32:09;;;;;;;10.83;9.73;;;10.70;99.90;;;;;;5026229;28;20918;-69
2021/05/03 07:34:34;;;;;;;10.37;9.03;;;10.80;99.90;;;;;;5022736;28;20193;-69
2021/05/03 07:37:02;;;;;;;10.63;9.20;;;10.80;99.90;;;;;;5026032;28;20259;-70
2021/05/03 07:39:28;;;;;;;11.23;10.03;;;10.80;99.90;;;;;;5021936;28;20467;-67
2021/05/03 07:41:54;;;;;;;13.33;8.80;;;10.90;99.90;;;;;;5019767;28;20811;-70
2021/05/03 07:44:21;;;;;;;13.77;10.33;;;11.00;99.90;;;;;;5005080;28;20185;-69
2021/05/03 07:46:46;;;;;;;11.77;10.13;;;11.00;99.90;;;;;;5023728;28;20854;-70
2021/05/03 07:49:12;;;;;;;23.37;9.43;;;11.00;99.90;;;;;;5020606;28;20452;-69
2021/05/03 07:51:38;;;;;;;10.33;9.30;;;11.20;99.90;;;;;;5025994;28;20582;-69
2021/05/03 07:54:04;;;;;;;11.03;9.53;;;11.20;99.90;;;;;;5022787;28;20710;-69
2021/05/03 07:56:31;;;;;;;10.27;9.23;;;11.20;99.90;;;;;;5022861;28;20212;-71
2021/05/03 07:58:58;;;;;;;10.00;8.73;;;11.30;99.90;;;;;;5023425;28;20187;-70
2021/05/03 08:01:24;;;;;;;9.50;8.53;;;11.50;99.90;;;;;;5021754;28;20530;-70
2021/05/03 08:03:50;;;;;;;9.97;8.90;;;11.60;99.90;;;;;;5016652;28;20981;-70
2021/05/03 08:06:16;;;;;;;10.40;8.70;;;11.50;99.90;;;;;;5021864;28;20735;-72
2021/05/03 08:08:44;;;;;;;13.00;9.97;;;11.60;99.90;;;;;;5022385;28;20280;-71
2021/05/03 08:11:10;;;;;;;10.47;9.47;;;11.70;99.90;;;;;;5017064;28;20480;-69
2021/05/03 08:13:37;;;;;;;10.43;9.33;;;11.70;99.90;;;;;;5023893;28;20443;-69
2021/05/03 08:16:06;;;;;;;10.23;8.33;;;11.80;99.90;;;;;;5021299;28;20486;-71
2021/05/03 08:18:31;;;;;;;19.00;8.40;;;11.90;99.90;;;;;;5022447;28;20485;-70
2021/05/03 08:20:57;;;;;;;9.33;8.50;;;12.00;99.90;;;;;;5020204;28;20543;-70
2021/05/03 08:23:25;;;;;;;9.90;9.00;;;11.90;99.90;;;;;;5022678;28;20180;-69
2021/05/03 08:25:52;;;;;;;16.60;9.40;;;11.70;99.90;;;;;;5023774;28;20415;-70
2021/05/03 08:28:18;;;;;;;10.03;9.00;;;11.80;99.90;;;;;;5022636;28;20459;-71
2021/05/03 08:30:45;;;;;;;10.20;8.63;;;12.00;99.90;;;;;;5020685;28;21111;-70
2021/05/03 08:33:11;;;;;;;9.40;8.50;;;11.90;99.90;;;;;;5023186;28;20455;-70
2021/05/03 08:35:38;;;;;;;9.40;8.47;;;11.90;99.90;;;;;;5019625;28;20542;-68
2021/05/03 08:38:04;;;;;;;8.50;7.70;;;12.20;99.90;;;;;;5020667;28;20524;-71
2021/05/03 08:40:31;;;;;;;8.77;7.87;;;12.20;99.90;;;;;;5006887;28;20523;-70
2021/05/03 08:42:57;;;;;;;8.47;7.77;;;12.40;99.90;;;;;;4993242;28;20483;-70
2021/05/03 08:45:23;;;;;;;9.13;7.60;;;12.50;99.90;;;;;;5023157;28;20431;-70
2021/05/03 08:48:36;;;;;;;8.93;8.03;;;12.70;99.90;;;;;;5022782;28;21135;-70
2021/05/03 08:51:09;;;;;;;9.00;7.40;;;12.90;99.90;;;;;;5010395;28;20910;-70
2021/05/03 08:53:40;;;;;;;9.20;8.30;;;13.00;99.90;;;;;;5018616;28;21223;-70
2021/05/03 08:56:06;;;;;;;8.90;8.00;;;13.30;99.90;;;;;;5017874;28;20581;-70
2021/05/03 08:58:36;;;;;;;8.23;7.53;;;13.50;99.90;;;;;;5017120;28;20481;-70
2021/05/03 09:01:02;;;;;;;11.60;10.60;;;13.50;99.90;;;;;;5018040;28;21303;-69
2021/05/03 09:03:28;;;;;;;9.53;8.63;;;13.60;99.90;;;;;;5020691;28;20914;-70
2021/05/03 09:05:55;;;;;;;8.60;7.90;;;13.60;99.90;;;;;;5016016;28;20552;-69
2021/05/03 09:08:32;;;;;;;9.77;8.77;;;13.60;99.90;;;;;;5017956;28;20430;-71
2021/05/03 09:10:58;;;;;;;9.60;8.30;;;13.50;99.90;;;;;;5020389;28;20461;-70
2021/05/03 09:13:36;;;;;;;8.33;7.60;;;13.70;99.90;;;;;;5018247;28;20526;-71
2021/05/03 09:16:23;;;;;;;8.83;8.00;;;13.80;99.90;;;;;;5016814;28;20470;-72
2021/05/03 09:18:50;;;;;;;9.10;8.10;;;13.60;99.90;;;;;;5020008;28;20857;-70
2021/05/03 09:21:20;;;;;;;10.30;9.13;;;13.70;99.90;;;;;;5018979;28;20468;-70
2021/05/03 09:24:12;;;;;;;12.60;8.27;;;13.80;99.90;;;;;;5016972;28;20475;-69
2021/05/03 09:27:06;;;;;;;10.43;9.53;;;13.80;99.90;;;;;;5017109;28;20447;-68
2021/05/03 09:29:58;;;;;;;10.27;8.70;;;14.00;99.90;;;;;;5011989;28;20949;-70
2021/05/03 09:32:24;;;;;;;8.77;7.97;;;14.20;99.90;;;;;;5009608;28;20981;-70
2021/05/03 09:34:52;;;;;;;9.47;8.50;;;14.30;98.70;;;;;;5016203;28;20443;-70
2021/05/03 09:37:30;;;;;;;8.33;7.60;;;14.30;97.40;;;;;;5017159;28;20463;-71
2021/05/03 09:40:04;;;;;;;9.20;8.40;;;14.40;94.30;;;;;;5014894;28;20517;-69
2021/05/03 09:42:55;;;;;;;13.87;8.77;;;14.40;95.10;;;;;;5013674;28;20816;-69
2021/05/03 09:45:27;;;;;;;8.93;8.03;;;14.60;95.80;;;;;;5013659;28;20518;-67
2021/05/03 09:47:58;;;;;;;7.93;7.23;;;14.70;95.10;;;;;;5018963;28;20794;-69
2021/05/03 09:50:30;;;;;;;10.27;7.20;;;14.60;92.20;;;;;;5002232;28;20441;-70
2021/05/03 09:53:05;;;;;;;8.37;7.60;;;14.60;89.30;;;;;;5019467;28;20426;-71
2021/05/03 09:55:43;;;;;;;7.83;6.77;;;14.70;87.80;;;;;;5017003;28;20430;-70
2021/05/03 09:58:13;;;;;;;7.67;6.73;;;14.70;85.60;;;;;;5018466;28;20494;-70
2021/05/03 10:00:45;;;;;;;8.00;7.20;;;14.90;81.70;;;;;;5017851;28;20435;-71
2021/05/03 10:03:27;;;;;;;8.40;7.60;;;14.90;84.50;;;;;;5014791;28;20530;-71
2021/05/03 10:05:53;;;;;;;8.00;7.20;;;15.10;82.10;;;;;;5015391;28;20423;-70
2021/05/03 10:08:18;;;;;;;9.30;8.50;;;15.20;81.80;;;;;;5016229;28;20437;-70
2021/05/03 10:10:49;;;;;;;8.90;8.03;;;15.30;83.30;;;;;;5010029;28;20431;-70
2021/05/03 10:13:14;;;;;;;8.70;7.90;;;15.50;82.50;;;;;;5018171;28;20203;-67
2021/05/03 10:15:40;;;;;;;7.67;6.97;;;15.70;78.60;;;;;;5020097;28;20447;-71
2021/05/03 10:18:07;;;;;;;9.03;8.20;;;16.00;79.60;;;;;;5015382;28;20213;-68
2021/05/03 10:20:33;;;;;;;7.80;7.10;;;16.10;76.80;;;;;;5016712;28;21144;-70
2021/05/03 10:22:58;;;;;;;6.93;6.33;;;16.10;75.60;;;;;;5018691;28;20454;-69
2021/05/03 10:25:24;;;;;;;7.17;6.57;;;16.20;74.90;;;;;;5017761;28;20193;-68
2021/05/03 10:27:52;;;;;;;8.43;7.60;;;16.50;74.00;;;;;;5017320;28;20197;-71
2021/05/03 10:30:24;;;;;;;7.70;7.00;;;16.60;72.00;;;;;;5014491;28;20272;-70
2021/05/03 10:33:05;;;;;;;8.30;7.60;;;16.70;74.40;;;;;;5015864;28;20517;-70
2021/05/03 10:35:42;;;;;;;8.17;7.47;;;16.50;70.80;;;;;;5014132;28;20435;-70
2021/05/03 10:38:30;;;;;;;9.07;8.20;;;16.20;67.10;;;;;;5016118;28;20458;-70
2021/05/03 10:40:58;;;;;;;7.50;6.87;;;16.10;69.00;;;;;;5022596;28;20455;-68
2021/05/03 10:43:40;;;;;;;6.90;6.30;;;16.10;69.30;;;;;;5021604;28;20431;-68
2021/05/03 10:46:58;;;;;;;7.33;6.73;;;15.80;66.50;;;;;;5020260;28;20983;-71
2021/05/03 10:49:05;;;;;;;10.90;6.63;;;15.60;66.80;;;;;;5011327;28;20430;-69
2021/05/03 10:54:46;;;;;;;8.23;7.43;;;15.40;68.40;;;;;;5022798;28;20866;-69
2021/05/03 10:57:18;;;;;;;7.47;6.80;;;15.60;67.80;;;;;;5018236;28;20555;-69
2021/05/03 10:59:43;;;;;;;7.20;6.70;;;17.20;67.20;;;;;;5022024;28;20431;-70
2021/05/03 11:02:11;;;;;;;7.60;7.00;;;16.70;63.60;;;;;;5022223;28;20489;-70
2021/05/03 11:04:39;;;;;;;8.50;7.70;;;16.30;64.70;;;;;;5021793;28;20192;-71
2021/05/03 11:07:08;;;;;;;8.73;6.80;;;16.30;64.30;;;;;;5019306;28;20481;-69
2021/05/03 11:09:38;;;;;;;8.10;7.30;;;16.10;65.00;;;;;;5020667;28;20462;-70
2021/05/03 11:12:10;;;;;;;8.07;7.27;;;16.40;67.30;;;;;;5020068;28;20454;-70
2021/05/03 11:14:58;;;;;;;8.83;7.53;;;17.40;65.50;;;;;;5021953;28;20693;-69
2021/05/03 11:17:24;;;;;;;8.13;7.43;;;18.80;61.60;;;;;;5018247;28;20474;-70
2021/05/03 11:20:12;;;;;;;7.60;6.83;;;18.40;58.80;;;;;;5021200;28;20459;-70
2021/05/03 11:22:49;;;;;;;7.50;6.80;;;17.70;59.90;;;;;;5015306;28;20217;-71
2021/05/03 11:25:22;;;;;;;7.27;6.73;;;17.30;57.60;;;;;;5020669;28;20450;-70
2021/05/03 11:27:58;;;;;;;7.50;6.80;;;17.30;57.50;;;;;;5019551;28;20523;-69
2021/05/03 11:33:48;;;;;;;7.40;6.63;;;16.50;58.20;;;;;;4986514;28;20957;-69
2021/05/03 11:36:30;;;;;;;8.60;7.70;;;17.80;60.00;;;;;;5021138;28;20462;-69
2021/05/03 11:39:04;;;;;;;9.77;8.87;;;20.60;56.00;;;;;;5017013;28;20474;-70
2021/05/03 11:46:33;;;;;;;8.00;7.40;;;24.80;43.30;;;;;;5013384;28;20881;-69
2021/05/03 11:49:10;;;;;;;8.13;7.50;;;23.30;42.00;;;;;;5020591;28;20191;-70
2021/05/03 11:51:46;;;;;;;7.63;7.00;;;23.60;43.90;;;;;;4996727;28;21183;-69
2021/05/03 11:54:32;;;;;;;8.10;7.40;;;25.40;41.40;;;;;;5013927;28;20841;-69
2021/05/03 11:57:04;;;;;;;8.93;8.13;;;23.20;41.90;;;;;;5020731;28;20458;-71
2021/05/03 11:59:31;;;;;;;6.67;6.17;;;21.40;42.40;;;;;;5018418;28;20451;-71
2021/05/03 12:02:01;;;;;;;6.87;6.37;;;20.00;42.60;;;;;;5011918;28;20463;-68
2021/05/03 12:04:44;;;;;;;7.10;6.50;;;18.90;43.80;;;;;;5011046;28;20450;-70
2021/05/03 12:07:15;;;;;;;10.77;9.77;;;18.00;44.60;;;;;;5016409;28;20984;-70
2021/05/03 12:09:42;;;;;;;7.23;6.63;;;17.30;46.40;;;;;;5019732;28;20517;-69
2021/05/03 12:12:08;;;;;;;8.23;7.43;;;16.70;47.60;;;;;;4982391;28;20468;-69
2021/05/03 12:14:38;;;;;;;8.33;7.53;;;16.40;48.80;;;;;;5018971;28;20470;-70
2021/05/03 12:17:13;;;;;;;8.17;7.43;;;15.90;49.50;;;;;;5018811;28;20254;-68
2021/05/03 12:19:39;;;;;;;7.17;6.57;;;15.50;50.70;;;;;;5018741;28;20462;-70
2021/05/03 12:22:05;;;;;;;7.97;6.57;;;15.40;51.70;;;;;;5016439;28;21224;-69
2021/05/03 12:24:34;;;;;;;8.30;6.80;;;15.30;52.20;;;;;;5017832;28;20517;-69
2021/05/03 12:27:00;;;;;;;7.90;7.20;;;15.10;53.60;;;;;;5020988;28;20563;-70
2021/05/03 12:29:28;;;;;;;8.47;7.13;;;15.00;54.50;;;;;;5018985;28;20480;-69
2021/05/03 12:31:54;;;;;;;8.50;7.70;;;15.00;55.40;;;;;;5015091;28;20474;-70
2021/05/03 12:34:22;;;;;;;8.37;7.00;;;15.10;55.20;;;;;;5020105;28;20427;-70
2021/05/03 12:37:14;;;;;;;7.70;7.10;;;15.30;55.60;;;;;;5019908;28;21283;-71
2021/05/03 12:40:06;;;;;;;7.60;6.90;;;15.50;54.90;;;;;;5019161;28;20450;-70
2021/05/03 12:43:02;;;;;;;13.00;7.60;;;15.50;55.40;;;;;;5019121;28;20482;-69
2021/05/03 12:53:49;;;;;;;6.53;5.97;;;15.60;52.70;;;;;;5022259;28;20508;-70
2021/05/03 12:56:31;;;;;;;6.60;6.10;;;15.60;52.70;;;;;;5021843;28;20439;-71
2021/05/03 12:59:11;;;;;;;6.90;6.30;;;15.40;52.80;;;;;;5018691;28;20478;-70
2021/05/03 13:04:21;;;;;;;7.20;6.50;;;15.30;52.10;;;;;;5021188;28;21096;-70
2021/05/03 13:12:38;;;;;;;6.97;6.40;;;15.30;52.80;;;;;;5015250;28;20454;-71
2021/05/03 13:29:47;;;;;;;8.20;6.30;;;15.70;52.40;;;;;;5017846;28;20442;-69
2021/05/03 13:32:19;;;;;;;9.67;6.53;;;15.70;52.60;;;;;;5019289;28;21253;-69
2021/05/03 13:34:49;;;;;;;7.50;6.80;;;15.80;52.90;;;;;;5000010;28;20462;-70
2021/05/03 13:37:17;;;;;;;8.63;7.20;;;16.10;53.00;;;;;;5020729;28;20481;-69
2021/05/03 13:39:44;;;;;;;7.13;6.43;;;16.20;53.40;;;;;;5001429;28;20427;-72
2021/05/03 13:42:11;;;;;;;6.90;6.30;;;16.20;53.40;;;;;;5019611;28;20460;-71
2021/05/03 13:44:38;;;;;;;7.63;6.90;;;16.10;52.50;;;;;;5018098;28;20439;-69
2021/05/03 13:47:05;;;;;;;7.10;6.50;;;16.00;53.00;;;;;;4999706;28;20451;-71
2021/05/03 13:49:33;;;;;;;6.80;6.03;;;16.20;53.10;;;;;;5015395;28;20455;-69
2021/05/03 13:52:03;;;;;;;7.27;6.67;;;16.40;52.10;;;;;;5015899;28;20454;-69
2021/05/03 13:54:28;;;;;;;7.47;6.77;;;16.40;52.30;;;;;;5017111;28;20446;-69